Time,TemperatureF,DewpointF,PressureIn,WindDirection,WindDirectionDegrees,WindSpeedMPH,WindSpeedGustMPH,Humidity,HourlyPrecipIn,Conditions,Clouds,dailyrainin,SoftwareType,DateUTC
2013-04-27 00:00:00,48.2,14.9,29.32,NW,315,0.0,0.0,26,0.00,,---,0.00,VWS V13.01,2013-04-27 04:00:00,
2013-04-27 00:01:00,48.2,14.9,29.32,NW,315,0.0,0.0,26,0.00,,---,0.00,VWS V13.01,2013-04-27 04:01:00,
2013-04-27 00:02:00,48.2,14.9,29.32,NW,315,0.0,0.0,26,0.00,,---,0.00,VWS V13.01,2013-04-27 04:02:00,
2013-04-27 00:12:00,47.8,15.5,29.32,NW,315,0.0,0.0,27,0.00,,---,0.00,VWS V13.01,2013-04-27 04:12:00,
2013-04-27 00:13:00,47.8,15.5,29.32,NW,315,0.0,0.0,27,0.00,,---,0.00,VWS V13.01,2013-04-27 04:13:00,
2013-04-27 00:18:00,47.5,15.2,29.32,NW,315,0.0,0.0,27,0.00,,---,0.00,VWS V13.01,2013-04-27 04:18:00,
2013-04-27 00:23:00,47.5,15.2,29.32,NW,315,0.0,0.0,27,0.00,,---,0.00,VWS V13.01,2013-04-27 04:23:00,
2013-04-27 00:28:00,47.5,15.2,29.32,NW,315,0.0,0.0,27,0.00,,---,0.00,VWS V13.01,2013-04-27 04:28:00,
2013-04-27 00:33:00,47.3,12.4,29.32,NW,315,0.0,0.0,24,0.00,,---,0.00,VWS V13.01,2013-04-27 04:33:00,
2013-04-27 00:38:00,47.5,12.5,29.32,NW,315,0.0,0.0,24,0.00,,---,0.00,VWS V13.01,2013-04-27 04:38:00,
2013-04-27 00:43:00,47.3,12.4,29.32,NW,315,0.0,0.0,24,0.00,,---,0.00,VWS V13.01,2013-04-27 04:43:00,
2013-04-27 00:48:00,47.3,12.4,29.32,NW,315,0.0,0.0,24,0.00,,---,0.00,VWS V13.01,2013-04-27 04:48:00,
2013-04-27 00:53:00,47.3,12.4,29.32,NW,315,0.0,0.0,24,0.00,,---,0.00,VWS V13.01,2013-04-27 04:53:00,
2013-04-27 00:58:00,47.3,12.4,29.32,NW,315,0.0,0.0,24,0.00,,---,0.00,VWS V13.01,2013-04-27 04:58:00,
2013-04-27 01:03:00,47.5,12.5,29.32,NW,315,0.0,0.0,24,0.00,,---,0.00,VWS V13.01,2013-04-27 05:03:00,
2013-04-27 01:08:00,47.5,12.5,29.32,NW,315,0.0,0.0,24,0.00,,---,0.00,VWS V13.01,2013-04-27 05:08:00,
2013-04-27 01:14:00,47.3,12.4,29.32,NW,315,0.0,0.0,24,0.00,,---,0.00,VWS V13.01,2013-04-27 05:14:00,
2013-04-27 01:19:00,46.9,12.1,29.32,NW,315,0.0,0.0,24,0.00,,---,0.00,VWS V13.01,2013-04-27 05:19:00,
2013-04-27 01:24:00,46.6,14.4,29.32,NW,315,0.0,0.0,27,0.00,,---,0.00,VWS V13.01,2013-04-27 05:24:00,
2013-04-27 01:29:00,46.4,11.6,29.32,NW,315,0.0,0.0,24,0.00,,---,0.00,VWS V13.01,2013-04-27 05:29:00,
2013-04-27 01:34:00,46.2,14.9,29.32,NW,315,0.0,0.0,28,0.00,,---,0.00,VWS V13.01,2013-04-27 05:34:00,
2013-04-27 01:39:00,46.0,14.8,29.32,NW,315,0.0,0.0,28,0.00,,---,0.00,VWS V13.01,2013-04-27 05:39:00,
2013-04-27 01:44:00,46.0,14.8,29.32,NW,315,0.0,0.0,28,0.00,,---,0.00,VWS V13.01,2013-04-27 05:44:00,
2013-04-27 01:49:00,45.5,14.3,29.32,NW,315,0.0,0.0,28,0.00,,---,0.00,VWS V13.01,2013-04-27 05:49:00,
2013-04-27 01:54:00,45.3,14.1,29.32,NW,315,0.0,0.0,28,0.00,,---,0.00,VWS V13.01,2013-04-27 05:54:00,
2013-04-27 01:59:00,45.3,14.9,29.32,NW,315,0.0,0.0,29,0.00,,---,0.00,VWS V13.01,2013-04-27 05:59:00,
2013-04-27 02:04:00,45.3,14.1,29.32,NW,315,0.0,0.0,28,0.00,,---,0.00,VWS V13.01,2013-04-27 06:04:00,
2013-04-27 02:09:00,45.1,14.0,29.32,NW,315,0.0,0.0,28,0.00,,---,0.00,VWS V13.01,2013-04-27 06:09:00,
2013-04-27 02:14:00,45.1,14.0,29.32,NW,315,0.0,0.0,28,0.00,,---,0.00,VWS V13.01,2013-04-27 06:14:00,
2013-04-27 02:19:00,44.8,13.7,29.32,NW,315,0.0,0.0,28,0.00,,---,0.00,VWS V13.01,2013-04-27 06:19:00,
2013-04-27 02:24:00,44.4,14.2,29.29,NW,315,0.0,0.0,29,0.00,,---,0.00,VWS V13.01,2013-04-27 06:24:00,
2013-04-27 02:29:00,44.2,14.0,29.29,NW,315,0.0,0.0,29,0.00,,---,0.00,VWS V13.01,2013-04-27 06:29:00,
2013-04-27 02:35:00,44.1,14.6,29.29,NW,315,0.0,0.0,30,0.00,,---,0.00,VWS V13.01,2013-04-27 06:35:00,
2013-04-27 02:40:00,43.7,14.3,29.29,NW,315,0.0,0.0,30,0.00,,---,0.00,VWS V13.01,2013-04-27 06:40:00,
2013-04-27 02:45:00,43.3,14.8,29.29,NW,315,0.0,0.0,31,0.00,,---,0.00,VWS V13.01,2013-04-27 06:45:00,
2013-04-27 02:50:00,42.8,16.4,29.29,NW,315,0.0,0.0,34,0.00,,---,0.00,VWS V13.01,2013-04-27 06:50:00,
2013-04-27 02:55:00,42.8,17.1,29.32,NW,315,0.0,0.0,35,0.00,,---,0.00,VWS V13.01,2013-04-27 06:55:00,
2013-04-27 03:00:00,42.8,17.7,29.32,NW,315,0.0,0.0,36,0.00,,---,0.00,VWS V13.01,2013-04-27 07:00:00,
2013-04-27 03:05:00,42.6,18.8,29.32,NW,315,0.0,0.0,38,0.00,,---,0.00,VWS V13.01,2013-04-27 07:05:00,
2013-04-27 03:10:00,42.3,18.5,29.29,NW,315,0.0,0.0,38,0.00,,---,0.00,VWS V13.01,2013-04-27 07:10:00,
2013-04-27 03:15:00,42.1,18.9,29.29,NW,315,0.0,0.0,39,0.00,,---,0.00,VWS V13.01,2013-04-27 07:15:00,
2013-04-27 03:20:00,42.1,18.3,29.29,NW,315,0.0,0.0,38,0.00,,---,0.00,VWS V13.01,2013-04-27 07:20:00,
2013-04-27 03:25:00,41.7,18.6,29.29,NW,315,0.0,0.0,39,0.00,,---,0.00,VWS V13.01,2013-04-27 07:25:00,
2013-04-27 03:30:00,41.9,18.2,29.29,NW,315,0.0,0.0,38,0.00,,---,0.00,VWS V13.01,2013-04-27 07:30:00,
2013-04-27 03:35:00,41.7,18.6,29.29,NW,315,0.0,0.0,39,0.00,,---,0.00,VWS V13.01,2013-04-27 07:35:00,
2013-04-27 03:40:00,41.5,18.4,29.29,NW,315,0.0,0.0,39,0.00,,---,0.00,VWS V13.01,2013-04-27 07:40:00,
2013-04-27 03:45:00,41.5,18.4,29.29,NW,315,0.0,0.0,39,0.00,,---,0.00,VWS V13.01,2013-04-27 07:45:00,
2013-04-27 03:50:00,41.0,18.5,29.29,NW,315,0.0,0.0,40,0.00,,---,0.00,VWS V13.01,2013-04-27 07:50:00,
2013-04-27 03:55:00,40.8,18.4,29.29,NW,315,0.0,0.0,40,0.00,,---,0.00,VWS V13.01,2013-04-27 07:55:00,
2013-04-27 04:01:00,40.6,18.8,29.29,NW,315,0.0,0.0,41,0.00,,---,0.00,VWS V13.01,2013-04-27 08:01:00,
2013-04-27 04:06:00,40.5,19.2,29.29,NW,315,0.0,0.0,42,0.00,,---,0.00,VWS V13.01,2013-04-27 08:06:00,
2013-04-27 04:11:00,40.3,18.5,29.29,NW,315,0.0,0.0,41,0.00,,---,0.00,VWS V13.01,2013-04-27 08:11:00,
2013-04-27 04:16:00,40.3,18.5,29.29,NW,315,0.0,0.0,41,0.00,,---,0.00,VWS V13.01,2013-04-27 08:16:00,
2013-04-27 04:21:00,40.3,18.5,29.29,NW,315,0.0,0.0,41,0.00,,---,0.00,VWS V13.01,2013-04-27 08:21:00,
2013-04-27 04:26:00,40.3,18.5,29.29,NW,315,0.0,0.0,41,0.00,,---,0.00,VWS V13.01,2013-04-27 08:26:00,
2013-04-27 04:31:00,40.3,19.0,29.29,NW,315,0.0,0.0,42,0.00,,---,0.00,VWS V13.01,2013-04-27 08:31:00,
2013-04-27 04:36:00,39.9,18.7,29.29,NW,315,0.0,0.0,42,0.00,,---,0.00,VWS V13.01,2013-04-27 08:36:00,
2013-04-27 04:41:00,39.9,18.7,29.29,NW,315,0.0,0.0,42,0.00,,---,0.00,VWS V13.01,2013-04-27 08:41:00,
2013-04-27 04:46:00,39.9,19.8,29.29,NW,315,0.0,0.0,44,0.00,,---,0.00,VWS V13.01,2013-04-27 08:46:00,
2013-04-27 04:51:00,39.7,19.6,29.29,NW,315,0.0,0.0,44,0.00,,---,0.00,VWS V13.01,2013-04-27 08:51:00,
2013-04-27 04:56:00,39.4,18.8,29.29,NW,315,0.0,0.0,43,0.00,,---,0.00,VWS V13.01,2013-04-27 08:56:00,
2013-04-27 05:01:00,39.4,18.8,29.29,NW,315,0.0,0.0,43,0.00,,---,0.00,VWS V13.01,2013-04-27 09:01:00,
2013-04-27 05:06:00,39.2,18.6,29.29,NW,315,0.0,0.0,43,0.00,,---,0.00,VWS V13.01,2013-04-27 09:06:00,
2013-04-27 05:11:00,39.2,18.6,29.29,NW,315,0.0,0.0,43,0.00,,---,0.00,VWS V13.01,2013-04-27 09:11:00,
2013-04-27 05:16:00,39.2,18.0,29.29,NW,315,0.0,0.0,42,0.00,,---,0.00,VWS V13.01,2013-04-27 09:16:00,
2013-04-27 05:22:00,39.2,19.1,29.29,NW,315,0.0,0.0,44,0.00,,---,0.00,VWS V13.01,2013-04-27 09:22:00,
2013-04-27 05:27:00,38.8,18.8,29.29,NW,315,0.0,0.0,44,0.00,,---,0.00,VWS V13.01,2013-04-27 09:27:00,
2013-04-27 05:32:00,38.7,18.1,29.29,NW,315,0.0,0.0,43,0.00,,---,0.00,VWS V13.01,2013-04-27 09:32:00,
2013-04-27 05:37:00,38.7,17.6,29.29,NW,315,0.0,0.0,42,0.00,,---,0.00,VWS V13.01,2013-04-27 09:37:00,
2013-04-27 05:42:00,38.7,18.1,29.29,NW,315,0.0,0.0,43,0.00,,---,0.00,VWS V13.01,2013-04-27 09:42:00,
2013-04-27 05:47:00,38.7,18.6,29.29,NW,315,0.0,0.0,44,0.00,,---,0.00,VWS V13.01,2013-04-27 09:47:00,
2013-04-27 05:52:00,38.7,18.6,29.29,NW,315,0.0,0.0,44,0.00,,---,0.00,VWS V13.01,2013-04-27 09:52:00,
2013-04-27 05:57:00,38.5,18.5,29.29,NW,315,0.0,0.0,44,0.00,,---,0.00,VWS V13.01,2013-04-27 09:57:00,
2013-04-27 06:02:00,38.5,19.0,29.29,NW,315,0.0,0.0,45,0.00,,---,0.00,VWS V13.01,2013-04-27 10:02:00,
2013-04-27 06:07:00,38.5,19.0,29.29,NW,315,0.0,0.0,45,0.00,,---,0.00,VWS V13.01,2013-04-27 10:07:00,
2013-04-27 06:12:00,38.3,18.3,29.29,NW,315,0.0,0.0,44,0.00,,---,0.00,VWS V13.01,2013-04-27 10:12:00,
2013-04-27 06:17:00,38.1,18.1,29.29,NW,315,0.0,0.0,44,0.00,,---,0.00,VWS V13.01,2013-04-27 10:17:00,
2013-04-27 06:22:00,38.1,18.1,29.29,NW,315,0.0,0.0,44,0.00,,---,0.00,VWS V13.01,2013-04-27 10:22:00,
2013-04-27 06:27:00,38.1,18.1,29.29,NW,315,0.0,0.0,44,0.00,,---,0.00,VWS V13.01,2013-04-27 10:27:00,
2013-04-27 06:32:00,38.1,18.1,29.29,NW,315,0.0,0.0,44,0.00,,---,0.00,VWS V13.01,2013-04-27 10:32:00,
2013-04-27 06:37:00,38.1,18.1,29.29,NW,315,0.0,0.0,44,0.00,,---,0.00,VWS V13.01,2013-04-27 10:37:00,
2013-04-27 06:43:00,38.1,18.1,29.29,NW,315,0.0,0.0,44,0.00,,---,0.00,VWS V13.01,2013-04-27 10:43:00,
2013-04-27 06:48:00,38.1,18.1,29.29,NW,315,0.0,0.0,44,0.00,,---,0.00,VWS V13.01,2013-04-27 10:48:00,
2013-04-27 06:53:00,38.1,18.1,29.29,NW,315,0.0,0.0,44,0.00,,---,0.00,VWS V13.01,2013-04-27 10:53:00,
2013-04-27 06:58:00,38.1,18.1,29.29,NW,315,0.0,0.0,44,0.00,,---,0.00,VWS V13.01,2013-04-27 10:58:00,
2013-04-27 07:03:00,38.3,18.3,29.29,NW,315,0.0,0.0,44,0.00,,---,0.00,VWS V13.01,2013-04-27 11:03:00,
2013-04-27 07:08:00,38.5,19.0,29.29,NW,315,0.0,0.0,45,0.00,,---,0.00,VWS V13.01,2013-04-27 11:08:00,
2013-04-27 07:13:00,38.7,19.7,29.29,NW,315,0.0,0.0,46,0.00,,---,0.00,VWS V13.01,2013-04-27 11:13:00,
2013-04-27 07:18:00,38.8,19.8,29.29,NW,315,0.0,0.0,46,0.00,,---,0.00,VWS V13.01,2013-04-27 11:18:00,
2013-04-27 07:23:00,39.2,20.2,29.29,NW,315,0.0,0.0,46,0.00,,---,0.00,VWS V13.01,2013-04-27 11:23:00,
2013-04-27 07:28:00,39.4,20.8,29.29,NW,315,0.0,0.0,47,0.00,,---,0.00,VWS V13.01,2013-04-27 11:28:00,
2013-04-27 07:33:00,39.6,21.0,29.29,NW,315,0.0,0.0,47,0.00,,---,0.00,VWS V13.01,2013-04-27 11:33:00,
2013-04-27 07:38:00,39.9,21.8,29.29,NW,315,0.0,0.0,48,0.00,,---,0.00,VWS V13.01,2013-04-27 11:38:00,
2013-04-27 07:43:00,40.3,22.7,29.29,NW,315,0.0,0.0,49,0.00,,---,0.00,VWS V13.01,2013-04-27 11:43:00,
2013-04-27 07:49:00,40.8,23.6,29.29,NW,315,0.0,0.0,50,0.00,,---,0.00,VWS V13.01,2013-04-27 11:49:00,
2013-04-27 07:54:00,41.2,23.5,29.29,NW,315,0.0,0.0,49,0.00,,---,0.00,VWS V13.01,2013-04-27 11:54:00,
2013-04-27 07:59:00,42.3,24.5,29.29,NW,315,0.0,0.0,49,0.00,,---,0.00,VWS V13.01,2013-04-27 11:59:00,
2013-04-27 08:04:00,42.6,24.8,29.29,NW,315,0.0,0.0,49,0.00,,---,0.00,VWS V13.01,2013-04-27 12:04:00,
2013-04-27 08:09:00,43.2,23.8,29.29,NW,315,0.0,0.0,46,0.00,,---,0.00,VWS V13.01,2013-04-27 12:09:00,
2013-04-27 08:14:00,43.7,22.7,29.29,NW,315,0.0,0.0,43,0.00,,---,0.00,VWS V13.01,2013-04-27 12:14:00,
2013-04-27 08:19:00,43.9,22.9,29.29,NW,315,0.0,0.0,43,0.00,,---,0.00,VWS V13.01,2013-04-27 12:19:00,
2013-04-27 08:24:00,44.4,22.2,29.29,NW,315,0.0,0.0,41,0.00,,---,0.00,VWS V13.01,2013-04-27 12:24:00,
2013-04-27 08:30:00,45.3,21.8,29.29,NW,315,0.0,0.0,39,0.00,,---,0.00,VWS V13.01,2013-04-27 12:30:00,
2013-04-27 08:35:00,45.9,21.7,29.29,NW,315,0.0,0.0,38,0.00,,---,0.00,VWS V13.01,2013-04-27 12:35:00,
2013-04-27 08:40:00,46.2,22.0,29.29,NW,315,0.0,0.0,38,0.00,,---,0.00,VWS V13.01,2013-04-27 12:40:00,
2013-04-27 08:45:00,46.9,22.0,29.29,NW,315,0.0,0.0,37,0.00,,---,0.00,VWS V13.01,2013-04-27 12:45:00,
2013-04-27 08:50:00,47.8,20.1,29.29,NW,315,0.0,0.0,33,0.00,,---,0.00,VWS V13.01,2013-04-27 12:50:00,
2013-04-27 08:55:00,48.2,19.0,29.29,NW,315,0.0,0.0,31,0.00,,---,0.00,VWS V13.01,2013-04-27 12:55:00,
2013-04-27 09:00:00,48.9,19.6,29.29,NW,315,0.0,0.0,31,0.00,,---,0.00,VWS V13.01,2013-04-27 13:00:00,
2013-04-27 09:05:00,49.6,19.5,29.29,NW,315,0.0,0.0,30,0.00,,---,0.00,VWS V13.01,2013-04-27 13:05:00,
2013-04-27 09:10:00,50.4,18.5,29.29,NW,315,0.0,0.0,28,0.00,,---,0.00,VWS V13.01,2013-04-27 13:10:00,
2013-04-27 09:15:00,51.6,18.8,29.29,NW,315,0.0,0.0,27,0.00,,---,0.00,VWS V13.01,2013-04-27 13:15:00,
2013-04-27 09:20:00,52.2,19.2,29.29,NW,315,0.0,0.0,27,0.00,,---,0.00,VWS V13.01,2013-04-27 13:20:00,
2013-04-27 09:25:00,53.1,19.1,29.32,NW,315,0.0,0.0,26,0.00,,---,0.00,VWS V13.01,2013-04-27 13:25:00,
2013-04-27 09:30:00,53.6,19.6,29.32,NW,315,0.0,0.0,26,0.00,,---,0.00,VWS V13.01,2013-04-27 13:30:00,
2013-04-27 09:36:00,53.6,19.6,29.32,NW,315,0.0,0.0,26,0.00,,---,0.00,VWS V13.01,2013-04-27 13:36:00,
2013-04-27 09:41:00,54.7,19.6,29.32,NW,315,0.0,0.0,25,0.00,,---,0.00,VWS V13.01,2013-04-27 13:41:00,
2013-04-27 09:48:00,56.1,17.8,29.32,NW,315,0.0,0.0,22,0.00,,---,0.00,VWS V13.01,2013-04-27 13:48:00,
2013-04-27 09:53:00,56.5,18.1,29.29,NW,315,0.0,0.0,22,0.00,,---,0.00,VWS V13.01,2013-04-27 13:53:00,
2013-04-27 09:58:00,57.4,18.9,29.29,NW,315,0.0,0.0,22,0.00,,---,0.00,VWS V13.01,2013-04-27 13:58:00,
2013-04-27 10:03:00,57.9,19.3,29.29,NW,315,0.0,0.0,22,0.00,,---,0.00,VWS V13.01,2013-04-27 14:03:00,
2013-04-27 10:08:00,58.3,16.2,29.32,North,0,0.0,0.0,19,0.00,,---,0.00,VWS V13.01,2013-04-27 14:08:00,
2013-04-27 10:13:00,59.0,16.8,29.32,North,0,0.0,0.0,19,0.00,,---,0.00,VWS V13.01,2013-04-27 14:13:00,
2013-04-27 10:18:00,59.9,17.6,29.32,North,0,0.0,0.0,19,0.00,,---,0.00,VWS V13.01,2013-04-27 14:18:00,
2013-04-27 10:24:00,60.3,17.9,29.29,North,0,0.0,0.0,19,0.00,,---,0.00,VWS V13.01,2013-04-27 14:24:00,
2013-04-27 10:29:00,60.3,17.9,29.29,NE,45,0.0,0.0,19,0.00,,---,0.00,VWS V13.01,2013-04-27 14:29:00,
2013-04-27 10:34:00,61.9,19.2,29.29,South,180,0.0,0.0,19,0.00,,---,0.00,VWS V13.01,2013-04-27 14:34:00,
2013-04-27 10:39:00,62.6,18.5,29.29,South,180,0.0,0.0,18,0.00,,---,0.00,VWS V13.01,2013-04-27 14:39:00,
2013-04-27 10:44:00,63.1,19.0,29.29,SE,135,0.0,0.0,18,0.00,,---,0.00,VWS V13.01,2013-04-27 14:44:00,
2013-04-27 10:49:00,63.5,19.3,29.29,NE,45,0.0,0.0,18,0.00,,---,0.00,VWS V13.01,2013-04-27 14:49:00,
2013-04-27 10:54:00,63.7,19.4,29.29,South,180,0.0,0.0,18,0.00,,---,0.00,VWS V13.01,2013-04-27 14:54:00,
2013-04-27 10:59:00,63.9,19.6,29.29,South,180,0.0,0.0,18,0.00,,---,0.00,VWS V13.01,2013-04-27 14:59:00,
2013-04-27 11:04:00,63.9,19.6,29.29,South,180,0.0,0.0,18,0.00,,---,0.00,VWS V13.01,2013-04-27 15:04:00,
2013-04-27 11:09:00,63.7,19.4,29.29,SSW,202,0.0,0.0,18,0.00,,---,0.00,VWS V13.01,2013-04-27 15:09:00,
2013-04-27 11:14:00,64.2,19.9,29.29,SSE,158,0.0,0.0,18,0.00,,---,0.00,VWS V13.01,2013-04-27 15:14:00,
2013-04-27 11:19:00,64.0,19.7,29.29,West,270,0.0,0.0,18,0.00,,---,0.00,VWS V13.01,2013-04-27 15:19:00,
2013-04-27 11:24:00,64.4,20.0,29.29,SSW,202,0.0,0.0,18,0.00,,---,0.00,VWS V13.01,2013-04-27 15:24:00,
2013-04-27 11:29:00,64.4,20.0,29.29,WNW,292,0.0,0.0,18,0.00,,---,0.00,VWS V13.01,2013-04-27 15:29:00,
2013-04-27 11:34:00,64.8,20.3,29.29,SE,135,0.0,0.0,18,0.00,,---,0.00,VWS V13.01,2013-04-27 15:34:00,
2013-04-27 11:40:00,65.3,20.7,29.29,South,180,0.0,0.0,18,0.00,,---,0.00,VWS V13.01,2013-04-27 15:40:00,
2013-04-27 11:45:00,65.3,20.7,29.29,NE,45,0.0,0.0,18,0.00,,---,0.00,VWS V13.01,2013-04-27 15:45:00,
2013-04-27 11:50:00,65.8,21.2,29.29,SSW,202,0.0,0.0,18,0.00,,---,0.00,VWS V13.01,2013-04-27 15:50:00,
2013-04-27 11:55:00,66.4,20.3,29.29,WSW,248,0.0,0.0,17,0.00,,---,0.00,VWS V13.01,2013-04-27 15:55:00,
2013-04-27 12:00:00,67.1,20.9,29.29,SW,225,0.0,0.0,17,0.00,,---,0.00,VWS V13.01,2013-04-27 16:00:00,
2013-04-27 12:05:00,66.9,20.7,29.29,South,180,0.0,0.0,17,0.00,,---,0.00,VWS V13.01,2013-04-27 16:05:00,
2013-04-27 12:10:00,67.3,21.0,29.29,East,90,0.0,0.0,17,0.00,,---,0.00,VWS V13.01,2013-04-27 16:10:00,
2013-04-27 12:15:00,67.6,21.3,29.29,SSE,158,0.0,0.0,17,0.00,,---,0.00,VWS V13.01,2013-04-27 16:15:00,
2013-04-27 12:20:00,67.6,21.3,29.29,South,180,0.0,0.0,17,0.00,,---,0.00,VWS V13.01,2013-04-27 16:20:00,
2013-04-27 12:25:00,66.9,20.7,29.29,NE,45,0.0,0.0,17,0.00,,---,0.00,VWS V13.01,2013-04-27 16:25:00,
2013-04-27 12:30:00,67.8,21.5,29.29,South,180,0.0,0.0,17,0.00,,---,0.00,VWS V13.01,2013-04-27 16:30:00,
2013-04-27 12:35:00,67.8,21.5,29.29,SW,225,0.0,0.0,17,0.00,,---,0.00,VWS V13.01,2013-04-27 16:35:00,
2013-04-27 12:40:00,67.8,21.5,29.29,SE,135,0.0,0.0,17,0.00,,---,0.00,VWS V13.01,2013-04-27 16:40:00,
2013-04-27 12:45:00,69.1,22.5,29.29,SE,135,0.0,4.0,17,0.00,,---,0.00,VWS V13.01,2013-04-27 16:45:00,
2013-04-27 12:50:00,68.9,22.3,29.29,NE,45,0.0,4.0,17,0.00,,---,0.00,VWS V13.01,2013-04-27 16:50:00,
2013-04-27 12:55:00,68.2,21.7,29.26,WSW,248,0.0,4.0,17,0.00,,---,0.00,VWS V13.01,2013-04-27 16:55:00,
2013-04-27 13:01:00,68.5,22.0,29.26,SSW,202,0.0,4.0,17,0.00,,---,0.00,VWS V13.01,2013-04-27 17:01:00,
2013-04-27 13:06:00,70.7,23.8,29.26,East,90,0.0,0.0,17,0.00,,---,0.00,VWS V13.01,2013-04-27 17:06:00,
2013-04-27 13:11:00,70.5,23.6,29.29,SSE,158,0.0,0.0,17,0.00,,---,0.00,VWS V13.01,2013-04-27 17:11:00,
2013-04-27 13:16:00,70.5,23.6,29.29,SE,135,0.0,0.0,17,0.00,,---,0.00,VWS V13.01,2013-04-27 17:16:00,
2013-04-27 13:21:00,71.2,24.2,29.29,SW,225,0.0,0.0,17,0.00,,---,0.00,VWS V13.01,2013-04-27 17:21:00,
2013-04-27 13:26:00,71.4,24.4,29.26,SE,135,0.0,0.0,17,0.00,,---,0.00,VWS V13.01,2013-04-27 17:26:00,
2013-04-27 13:31:00,71.4,24.4,29.26,SE,135,0.0,0.0,17,0.00,,---,0.00,VWS V13.01,2013-04-27 17:31:00,
2013-04-27 13:36:00,71.8,23.2,29.26,South,180,0.0,0.0,16,0.00,,---,0.00,VWS V13.01,2013-04-27 17:36:00,
2013-04-27 13:41:00,72.0,23.4,29.26,South,180,0.0,0.0,16,0.00,,---,0.00,VWS V13.01,2013-04-27 17:41:00,
2013-04-27 13:46:00,72.1,23.5,29.26,South,180,0.0,0.0,16,0.00,,---,0.00,VWS V13.01,2013-04-27 17:46:00,
2013-04-27 13:51:00,72.5,23.8,29.26,ESE,112,0.0,0.0,16,0.00,,---,0.00,VWS V13.01,2013-04-27 17:51:00,
2013-04-27 13:56:00,72.0,23.4,29.26,South,180,0.0,0.0,16,0.00,,---,0.00,VWS V13.01,2013-04-27 17:56:00,
2013-04-27 14:01:00,72.5,23.8,29.26,West,270,0.0,0.0,16,0.00,,---,0.00,VWS V13.01,2013-04-27 18:01:00,
2013-04-27 14:06:00,73.0,24.2,29.23,South,180,0.0,0.0,16,0.00,,---,0.00,VWS V13.01,2013-04-27 18:06:00,
2013-04-27 14:12:00,73.2,24.4,29.23,South,180,0.0,0.0,16,0.00,,---,0.00,VWS V13.01,2013-04-27 18:12:00,
2013-04-27 14:17:00,73.0,24.2,29.23,SSW,202,0.0,0.0,16,0.00,,---,0.00,VWS V13.01,2013-04-27 18:17:00,
2013-04-27 14:22:00,72.9,24.1,29.26,South,180,0.0,0.0,16,0.00,,---,0.00,VWS V13.01,2013-04-27 18:22:00,
2013-04-27 14:27:00,72.5,23.8,29.26,SSE,158,0.0,0.0,16,0.00,,---,0.00,VWS V13.01,2013-04-27 18:27:00,
2013-04-27 14:32:00,73.0,24.2,29.26,NE,45,0.0,0.0,16,0.00,,---,0.00,VWS V13.01,2013-04-27 18:32:00,
2013-04-27 14:37:00,73.9,25.0,29.26,NE,45,0.0,0.0,16,0.00,,---,0.00,VWS V13.01,2013-04-27 18:37:00,
2013-04-27 14:42:00,73.9,25.0,29.26,SSE,158,0.0,0.0,16,0.00,,---,0.00,VWS V13.01,2013-04-27 18:42:00,
2013-04-27 14:47:00,73.9,25.0,29.26,South,180,0.0,0.0,16,0.00,,---,0.00,VWS V13.01,2013-04-27 18:47:00,
2013-04-27 14:52:00,73.8,24.8,29.23,South,180,0.0,0.0,16,0.00,,---,0.00,VWS V13.01,2013-04-27 18:52:00,
2013-04-27 14:57:00,74.1,25.1,29.23,South,180,0.0,4.5,16,0.00,,---,0.00,VWS V13.01,2013-04-27 18:57:00,
2013-04-27 15:03:00,72.5,23.8,29.23,SSW,202,0.0,0.0,16,0.00,,---,0.00,VWS V13.01,2013-04-27 19:03:00,
2013-04-27 15:08:00,72.5,23.8,29.23,South,180,0.0,0.0,16,0.00,,---,0.00,VWS V13.01,2013-04-27 19:08:00,
2013-04-27 15:13:00,73.9,25.0,29.23,SSW,202,0.0,0.0,16,0.00,,---,0.00,VWS V13.01,2013-04-27 19:13:00,
2013-04-27 15:18:00,73.2,24.4,29.23,SE,135,0.0,0.0,16,0.00,,---,0.00,VWS V13.01,2013-04-27 19:18:00,
2013-04-27 15:23:00,74.3,25.2,29.23,East,90,0.0,0.0,16,0.00,,---,0.00,VWS V13.01,2013-04-27 19:23:00,
2013-04-27 15:28:00,74.7,25.5,29.23,SE,135,0.0,0.0,16,0.00,,---,0.00,VWS V13.01,2013-04-27 19:28:00,
2013-04-27 15:33:00,75.6,24.7,29.23,SE,135,0.0,0.0,15,0.00,,---,0.00,VWS V13.01,2013-04-27 19:33:00,
2013-04-27 15:39:00,74.7,25.5,29.23,SSE,158,0.0,0.0,16,0.00,,---,0.00,VWS V13.01,2013-04-27 19:39:00,
2013-04-27 15:44:00,74.8,25.7,29.23,SSE,158,0.0,0.0,16,0.00,,---,0.00,VWS V13.01,2013-04-27 19:44:00,
2013-04-27 15:49:00,74.8,25.7,29.23,SE,135,0.0,0.0,16,0.00,,---,0.00,VWS V13.01,2013-04-27 19:49:00,
2013-04-27 15:54:00,75.4,24.6,29.23,SE,135,0.0,0.0,15,0.00,,---,0.00,VWS V13.01,2013-04-27 19:54:00,
2013-04-27 15:59:00,74.3,25.2,29.23,South,180,0.0,0.0,16,0.00,,---,0.00,VWS V13.01,2013-04-27 19:59:00,
2013-04-27 16:04:00,74.3,25.2,29.23,SE,135,0.0,0.0,16,0.00,,---,0.00,VWS V13.01,2013-04-27 20:04:00,
2013-04-27 16:09:00,74.7,25.5,29.23,South,180,0.0,0.0,16,0.00,,---,0.00,VWS V13.01,2013-04-27 20:09:00,
2013-04-27 16:14:00,73.9,25.0,29.23,West,270,0.0,0.0,16,0.00,,---,0.00,VWS V13.01,2013-04-27 20:14:00,
2013-04-27 16:19:00,73.9,25.0,29.23,SSE,158,0.0,0.0,16,0.00,,---,0.00,VWS V13.01,2013-04-27 20:19:00,
2013-04-27 16:24:00,74.1,25.1,29.23,SE,135,0.0,0.0,16,0.00,,---,0.00,VWS V13.01,2013-04-27 20:24:00,
2013-04-27 16:29:00,73.9,25.0,29.23,South,180,0.0,0.0,16,0.00,,---,0.00,VWS V13.01,2013-04-27 20:29:00,
2013-04-27 16:35:00,72.9,24.1,29.23,South,180,0.0,0.0,16,0.00,,---,0.00,VWS V13.01,2013-04-27 20:35:00,
2013-04-27 16:40:00,73.2,24.4,29.20,South,180,0.0,0.0,16,0.00,,---,0.00,VWS V13.01,2013-04-27 20:40:00,
2013-04-27 16:45:00,73.8,24.8,29.20,SSE,158,0.0,0.0,16,0.00,,---,0.00,VWS V13.01,2013-04-27 20:45:00,
2013-04-27 16:50:00,74.5,25.4,29.20,SE,135,0.0,0.0,16,0.00,,---,0.00,VWS V13.01,2013-04-27 20:50:00,
2013-04-27 16:55:00,74.1,25.1,29.20,ESE,112,0.0,0.0,16,0.00,,---,0.00,VWS V13.01,2013-04-27 20:55:00,
2013-04-27 17:00:00,73.0,24.2,29.20,East,90,0.0,0.0,16,0.00,,---,0.00,VWS V13.01,2013-04-27 21:00:00,
2013-04-27 17:05:00,73.0,24.2,29.20,South,180,0.0,0.0,16,0.00,,---,0.00,VWS V13.01,2013-04-27 21:05:00,
2013-04-27 17:10:00,73.4,24.5,29.23,South,180,0.0,0.0,16,0.00,,---,0.00,VWS V13.01,2013-04-27 21:10:00,
2013-04-27 17:15:00,73.4,24.5,29.23,South,180,0.0,0.0,16,0.00,,---,0.00,VWS V13.01,2013-04-27 21:15:00,
2013-04-27 17:20:00,73.4,24.5,29.23,ENE,68,0.0,0.0,16,0.00,,---,0.00,VWS V13.01,2013-04-27 21:20:00,
2013-04-27 17:25:00,73.0,24.2,29.23,SSE,158,0.0,0.0,16,0.00,,---,0.00,VWS V13.01,2013-04-27 21:25:00,
2013-04-27 17:31:00,72.5,23.8,29.23,SW,225,0.0,0.0,16,0.00,,---,0.00,VWS V13.01,2013-04-27 21:31:00,
2013-04-27 17:36:00,71.8,23.2,29.23,South,180,0.0,0.0,16,0.00,,---,0.00,VWS V13.01,2013-04-27 21:36:00,
2013-04-27 17:41:00,71.4,24.4,29.23,East,90,0.0,0.0,17,0.00,,---,0.00,VWS V13.01,2013-04-27 21:41:00,
2013-04-27 17:46:00,71.1,24.1,29.23,SE,135,0.0,0.0,17,0.00,,---,0.00,VWS V13.01,2013-04-27 21:46:00,
2013-04-27 17:51:00,70.3,23.5,29.23,NE,45,0.0,0.0,17,0.00,,---,0.00,VWS V13.01,2013-04-27 21:51:00,
2013-04-27 17:56:00,70.0,23.2,29.20,SE,135,0.0,0.0,17,0.00,,---,0.00,VWS V13.01,2013-04-27 21:56:00,
2013-04-27 18:01:00,69.6,22.9,29.20,SE,135,0.0,0.0,17,0.00,,---,0.00,VWS V13.01,2013-04-27 22:01:00,
2013-04-27 18:06:00,69.4,22.8,29.20,East,90,0.0,0.0,17,0.00,,---,0.00,VWS V13.01,2013-04-27 22:06:00,
2013-04-27 18:11:00,69.4,22.8,29.20,ENE,68,0.0,0.0,17,0.00,,---,0.00,VWS V13.01,2013-04-27 22:11:00,
2013-04-27 18:16:00,68.5,22.0,29.20,SE,135,0.0,0.0,17,0.00,,---,0.00,VWS V13.01,2013-04-27 22:16:00,
2013-04-27 18:21:00,68.5,22.0,29.20,SE,135,0.0,0.0,17,0.00,,---,0.00,VWS V13.01,2013-04-27 22:21:00,
2013-04-27 18:26:00,68.5,22.0,29.20,SSE,158,0.0,0.0,17,0.00,,---,0.00,VWS V13.01,2013-04-27 22:26:00,
2013-04-27 18:31:00,68.2,21.7,29.20,SSE,158,0.0,0.0,17,0.00,,---,0.00,VWS V13.01,2013-04-27 22:31:00,
2013-04-27 18:36:00,67.8,21.5,29.23,WSW,248,0.0,0.0,17,0.00,,---,0.00,VWS V13.01,2013-04-27 22:36:00,
2013-04-27 18:42:00,67.6,21.3,29.23,WSW,248,0.0,0.0,17,0.00,,---,0.00,VWS V13.01,2013-04-27 22:42:00,
2013-04-27 18:47:00,67.6,21.3,29.23,SE,135,0.0,0.0,17,0.00,,---,0.00,VWS V13.01,2013-04-27 22:47:00,
2013-04-27 18:52:00,67.3,21.0,29.23,SE,135,0.0,0.0,17,0.00,,---,0.00,VWS V13.01,2013-04-27 22:52:00,
2013-04-27 18:57:00,67.1,20.9,29.23,SE,135,0.0,0.0,17,0.00,,---,0.00,VWS V13.01,2013-04-27 22:57:00,
2013-04-27 19:02:00,66.7,20.6,29.23,SE,135,0.0,0.0,17,0.00,,---,0.00,VWS V13.01,2013-04-27 23:02:00,
2013-04-27 19:07:00,66.6,20.4,29.23,SE,135,0.0,0.0,17,0.00,,---,0.00,VWS V13.01,2013-04-27 23:07:00,
2013-04-27 19:12:00,66.4,20.3,29.20,SE,135,0.0,0.0,17,0.00,,---,0.00,VWS V13.01,2013-04-27 23:12:00,
2013-04-27 19:17:00,65.8,21.2,29.20,SE,135,0.0,0.0,18,0.00,,---,0.00,VWS V13.01,2013-04-27 23:17:00,
2013-04-27 19:22:00,65.7,21.0,29.20,SE,135,0.0,0.0,18,0.00,,---,0.00,VWS V13.01,2013-04-27 23:22:00,
2013-04-27 19:27:00,65.5,20.9,29.20,SE,135,0.0,0.0,18,0.00,,---,0.00,VWS V13.01,2013-04-27 23:27:00,
2013-04-27 19:32:00,64.9,20.4,29.20,WNW,292,0.0,0.0,18,0.00,,---,0.00,VWS V13.01,2013-04-27 23:32:00,
2013-04-27 19:37:00,64.4,20.0,29.20,WNW,292,0.0,0.0,18,0.00,,---,0.00,VWS V13.01,2013-04-27 23:37:00,
2013-04-27 19:42:00,64.2,19.9,29.20,WNW,292,0.0,0.0,18,0.00,,---,0.00,VWS V13.01,2013-04-27 23:42:00,
2013-04-27 19:47:00,63.5,19.3,29.20,WNW,292,0.0,0.0,18,0.00,,---,0.00,VWS V13.01,2013-04-27 23:47:00,
2013-04-27 19:53:00,63.1,19.0,29.23,WNW,292,0.0,0.0,18,0.00,,---,0.00,VWS V13.01,2013-04-27 23:53:00,
2013-04-27 19:58:00,62.8,18.7,29.23,WNW,292,0.0,0.0,18,0.00,,---,0.00,VWS V13.01,2013-04-27 23:58:00,
2013-04-27 20:03:00,62.6,18.5,29.23,WNW,292,0.0,0.0,18,0.00,,---,0.00,VWS V13.01,2013-04-28 00:03:00,
2013-04-27 20:08:00,62.4,19.6,29.20,WNW,292,0.0,0.0,19,0.00,,---,0.00,VWS V13.01,2013-04-28 00:08:00,
2013-04-27 20:13:00,61.9,19.2,29.20,SW,225,0.0,0.0,19,0.00,,---,0.00,VWS V13.01,2013-04-28 00:13:00,
2013-04-27 20:18:00,61.3,18.8,29.20,WNW,292,0.0,0.0,19,0.00,,---,0.00,VWS V13.01,2013-04-28 00:18:00,
2013-04-27 20:23:00,61.2,18.6,29.20,WNW,292,0.0,0.0,19,0.00,,---,0.00,VWS V13.01,2013-04-28 00:23:00,
2013-04-27 20:28:00,60.6,18.2,29.20,WNW,292,0.0,0.0,19,0.00,,---,0.00,VWS V13.01,2013-04-28 00:28:00,
2013-04-27 20:33:00,60.6,18.2,29.20,WNW,292,0.0,0.0,19,0.00,,---,0.00,VWS V13.01,2013-04-28 00:33:00,
2013-04-27 20:38:00,59.9,17.6,29.20,WNW,292,0.0,0.0,19,0.00,,---,0.00,VWS V13.01,2013-04-28 00:38:00,
2013-04-27 20:43:00,59.9,17.6,29.20,WNW,292,0.0,0.0,19,0.00,,---,0.00,VWS V13.01,2013-04-28 00:43:00,
2013-04-27 20:49:00,59.7,17.4,29.20,WNW,292,0.0,0.0,19,0.00,,---,0.00,VWS V13.01,2013-04-28 00:49:00,
2013-04-27 20:54:00,59.7,17.4,29.20,WNW,292,0.0,0.0,19,0.00,,---,0.00,VWS V13.01,2013-04-28 00:54:00,
2013-04-27 20:59:00,60.1,17.7,29.20,WNW,292,0.0,0.0,19,0.00,,---,0.00,VWS V13.01,2013-04-28 00:59:00,
2013-04-27 21:04:00,59.5,17.3,29.20,WNW,292,0.0,0.0,19,0.00,,---,0.00,VWS V13.01,2013-04-28 01:04:00,
2013-04-27 21:09:00,59.5,17.3,29.20,WNW,292,0.0,0.0,19,0.00,,---,0.00,VWS V13.01,2013-04-28 01:09:00,
2013-04-27 21:14:00,59.4,17.1,29.20,WNW,292,0.0,0.0,19,0.00,,---,0.00,VWS V13.01,2013-04-28 01:14:00,
2013-04-27 21:19:00,59.4,17.1,29.20,WNW,292,0.0,0.0,19,0.00,,---,0.00,VWS V13.01,2013-04-28 01:19:00,
2013-04-27 21:24:00,59.2,17.0,29.20,WNW,292,0.0,0.0,19,0.00,,---,0.00,VWS V13.01,2013-04-28 01:24:00,
2013-04-27 21:29:00,59.4,17.1,29.20,WNW,292,0.0,0.0,19,0.00,,---,0.00,VWS V13.01,2013-04-28 01:29:00,
2013-04-27 21:34:00,59.5,17.3,29.20,WNW,292,0.0,0.0,19,0.00,,---,0.00,VWS V13.01,2013-04-28 01:34:00,
2013-04-27 21:40:00,59.5,17.3,29.20,WNW,292,0.0,0.0,19,0.00,,---,0.00,VWS V13.01,2013-04-28 01:40:00,
2013-04-27 21:45:00,59.4,17.1,29.20,WNW,292,0.0,0.0,19,0.00,,---,0.00,VWS V13.01,2013-04-28 01:45:00,
2013-04-27 21:50:00,59.2,17.0,29.20,WNW,292,0.0,0.0,19,0.00,,---,0.00,VWS V13.01,2013-04-28 01:50:00,
2013-04-27 21:55:00,59.0,16.8,29.23,West,270,0.0,0.0,19,0.00,,---,0.00,VWS V13.01,2013-04-28 01:55:00,
2013-04-27 22:00:00,59.0,16.8,29.23,West,270,0.0,0.0,19,0.00,,---,0.00,VWS V13.01,2013-04-28 02:00:00,
2013-04-27 22:05:00,58.3,16.2,29.23,West,270,0.0,0.0,19,0.00,,---,0.00,VWS V13.01,2013-04-28 02:05:00,
2013-04-27 22:10:00,58.3,16.2,29.23,West,270,0.0,0.0,19,0.00,,---,0.00,VWS V13.01,2013-04-28 02:10:00,
2013-04-27 22:15:00,58.3,16.2,29.23,West,270,0.0,0.0,19,0.00,,---,0.00,VWS V13.01,2013-04-28 02:15:00,
2013-04-27 22:21:00,58.1,16.1,29.23,West,270,0.0,0.0,19,0.00,,---,0.00,VWS V13.01,2013-04-28 02:21:00,
2013-04-27 22:26:00,57.6,15.6,29.23,West,270,0.0,0.0,19,0.00,,---,0.00,VWS V13.01,2013-04-28 02:26:00,
2013-04-27 22:31:00,57.6,15.6,29.23,NW,315,0.0,0.0,19,0.00,,---,0.00,VWS V13.01,2013-04-28 02:31:00,
2013-04-27 22:36:00,57.6,15.6,29.23,NW,315,0.0,0.0,19,0.00,,---,0.00,VWS V13.01,2013-04-28 02:36:00,
2013-04-27 22:41:00,57.2,15.3,29.20,South,180,0.0,0.0,19,0.00,,---,0.00,VWS V13.01,2013-04-28 02:41:00,
2013-04-27 22:46:00,58.1,16.1,29.20,WSW,248,0.0,0.0,19,0.00,,---,0.00,VWS V13.01,2013-04-28 02:46:00,
2013-04-27 22:52:00,58.5,16.4,29.20,WSW,248,0.0,0.0,19,0.00,,---,0.00,VWS V13.01,2013-04-28 02:52:00,
2013-04-27 22:57:00,58.5,16.4,29.20,WSW,248,0.0,0.0,19,0.00,,---,0.00,VWS V13.01,2013-04-28 02:57:00,
2013-04-27 23:02:00,58.6,16.5,29.20,West,270,0.0,0.0,19,0.00,,---,0.00,VWS V13.01,2013-04-28 03:02:00,
2013-04-27 23:07:00,58.6,16.5,29.20,West,270,0.0,0.0,19,0.00,,---,0.00,VWS V13.01,2013-04-28 03:07:00,
2013-04-27 23:12:00,57.6,15.6,29.20,West,270,0.0,0.0,19,0.00,,---,0.00,VWS V13.01,2013-04-28 03:12:00,
2013-04-27 23:17:00,57.6,15.6,29.20,West,270,0.0,0.0,19,0.00,,---,0.00,VWS V13.01,2013-04-28 03:17:00,
2013-04-27 23:22:00,56.8,16.2,29.20,West,270,0.0,0.0,20,0.00,,---,0.00,VWS V13.01,2013-04-28 03:22:00,
2013-04-27 23:27:00,56.8,16.2,29.20,West,270,0.0,0.0,20,0.00,,---,0.00,VWS V13.01,2013-04-28 03:27:00,
2013-04-27 23:32:00,56.5,15.9,29.20,West,270,0.0,0.0,20,0.00,,---,0.00,VWS V13.01,2013-04-28 03:32:00,
2013-04-27 23:37:00,56.5,18.1,29.20,West,270,0.0,0.0,22,0.00,,---,0.00,VWS V13.01,2013-04-28 03:37:00,
2013-04-27 23:42:00,56.5,15.9,29.20,West,270,0.0,0.0,20,0.00,,---,0.00,VWS V13.01,2013-04-28 03:42:00,
2013-04-27 23:47:00,56.3,18.0,29.20,West,270,0.0,0.0,22,0.00,,---,0.00,VWS V13.01,2013-04-28 03:47:00,
2013-04-27 23:52:00,56.3,18.0,29.20,West,270,0.0,0.0,22,0.00,,---,0.00,VWS V13.01,2013-04-28 03:52:00,
2013-04-27 23:58:00,55.9,20.6,29.20,West,270,0.0,0.0,25,0.00,,---,0.00,VWS V13.01,2013-04-28 03:58:00,